Norwegian Epic — C6XP7 — position and weather

sailwx.info

Track history (hours):
 
Tides and Currents Weather Stations Pressure Air Temp Water Temp Dewpoint Dewpoint Depression Visibility Wind Speed Wind Dir Waves Ship Positions

Norwegian Epic

Last reported at 2017-Dec-10 05:03 UTC. Time now 2017-Dec-11 13:29 UTC.
Position N 26°53' W 079°25'.

Length 329 m; draft 9 m.

MMSI: 311018500.

Date/timePositionNaut miles runAvg speedWind from/ knotsBaromVisibWave heightAir tempDewpointWater temp
2017-Dec-10 05:03N 26°53' W 079°25'316.2
2017-Dec-10 04:53N 26°55' W 079°26'615.9
2017-Dec-10 04:30N 27°00' W 079°30'62 1.4
2017-Dec-08 06:56N 25°58' W 079°25'820.2
2017-Dec-08 06:30N 25°52' W 079°31'1121.1
2017-Dec-08 06:00N 25°42' W 079°35'1121.9
2017-Dec-08 05:30N 25°31' W 079°37'  
2017-Dec-02 05:41N 27°11' W 079°37'418.6
2017-Dec-02 05:27N 27°07' W 079°35'818.8
2017-Dec-02 05:00N 26°58' W 079°34'918.7
2017-Dec-02 04:30N 26°49' W 079°32'3021.1
2017-Dec-02 03:05N 26°19' W 079°29'222.8
2017-Dec-02 03:00N 26°17' W 079°29'1122.8
2017-Dec-02 02:30N 26°06' W 079°31'1122.5
2017-Dec-02 02:00N 25°55' W 079°33'1122.0
2017-Dec-02 01:30N 25°44' W 079°35'1221.9
2017-Dec-02 00:56N 25°32' W 079°36'49119.8
2017-Dec-01 00:09N 20°45' W 086°50'321.1
2017-Dec-01 00:00N 20°42' W 086°52'1020.1
2017-Nov-30 23:30N 20°33' W 086°57'3 5.3
2017-Nov-30 23:00N 20°31' W 086°57'0 0.0
2017-Nov-30 22:30N 20°31' W 086°57'0 0.0
2017-Nov-30 22:00N 20°31' W 086°57'0 0.0
2017-Nov-30 21:28N 20°31' W 086°57'0 0.0
2017-Nov-30 20:58N 20°31' W 086°57'0 0.0
2017-Nov-30 20:28N 20°31' W 086°57'0 0.0
2017-Nov-30 19:59N 20°31' W 086°57'0 0.0
2017-Nov-30 19:29N 20°31' W 086°57'0 0.0
2017-Nov-30 18:59N 20°31' W 086°57'0 0.0
2017-Nov-30 18:30N 20°31' W 086°57'0 0.0
2017-Nov-30 18:00N 20°31' W 086°57'0 0.0
2017-Nov-30 17:30N 20°31' W 086°57'0 0.0
2017-Nov-30 17:00N 20°31' W 086°57'0 0.0
2017-Nov-30 16:30N 20°31' W 086°57'0 0.0
2017-Nov-30 16:00N 20°31' W 086°57'0 0.0
2017-Nov-30 15:30N 20°31' W 086°57'0 0.0
2017-Nov-30 15:00N 20°31' W 086°57'0 0.0
2017-Nov-30 14:30N 20°31' W 086°57'0 0.8
2017-Nov-30 14:00N 20°30' W 086°58'3 5.9
2017-Nov-30 13:30N 20°33' W 086°57'815.2
2017-Nov-30 13:00N 20°40' W 086°53'  
Track history (hours):
 
Tides and Currents Weather Stations Pressure Air Temp Water Temp Dewpoint Dewpoint Depression Visibility Wind Speed Wind Dir Waves Ship Positions

Norwegian Epic

Last reported at 2017-Dec-10 05:03 UTC. Time now 2017-Dec-11 13:29 UTC.
Position N 26°53' W 079°25'.

Length 329 m; draft 9 m.

MMSI: 311018500.

Date/timePositionNaut miles runAvg speedWind from/ knotsBaromVisibWave heightAir tempDewpointWater temp
2017-Dec-10 05:03N 26°53' W 079°25'316.2
2017-Dec-10 04:53N 26°55' W 079°26'615.9
2017-Dec-10 04:30N 27°00' W 079°30'62 1.4
2017-Dec-08 06:56N 25°58' W 079°25'820.2
2017-Dec-08 06:30N 25°52' W 079°31'1121.1
2017-Dec-08 06:00N 25°42' W 079°35'1121.9
2017-Dec-08 05:30N 25°31' W 079°37'  
2017-Dec-02 05:41N 27°11' W 079°37'418.6
2017-Dec-02 05:27N 27°07' W 079°35'818.8
2017-Dec-02 05:00N 26°58' W 079°34'918.7
2017-Dec-02 04:30N 26°49' W 079°32'3021.1
2017-Dec-02 03:05N 26°19' W 079°29'222.8
2017-Dec-02 03:00N 26°17' W 079°29'1122.8
2017-Dec-02 02:30N 26°06' W 079°31'1122.5
2017-Dec-02 02:00N 25°55' W 079°33'1122.0
2017-Dec-02 01:30N 25°44' W 079°35'1221.9
2017-Dec-02 00:56N 25°32' W 079°36'49119.8
2017-Dec-01 00:09N 20°45' W 086°50'321.1
2017-Dec-01 00:00N 20°42' W 086°52'1020.1
2017-Nov-30 23:30N 20°33' W 086°57'3 5.3
2017-Nov-30 23:00N 20°31' W 086°57'0 0.0
2017-Nov-30 22:30N 20°31' W 086°57'0 0.0
2017-Nov-30 22:00N 20°31' W 086°57'0 0.0
2017-Nov-30 21:28N 20°31' W 086°57'0 0.0
2017-Nov-30 20:58N 20°31' W 086°57'0 0.0
2017-Nov-30 20:28N 20°31' W 086°57'0 0.0
2017-Nov-30 19:59N 20°31' W 086°57'0 0.0
2017-Nov-30 19:29N 20°31' W 086°57'0 0.0
2017-Nov-30 18:59N 20°31' W 086°57'0 0.0
2017-Nov-30 18:30N 20°31' W 086°57'0 0.0
2017-Nov-30 18:00N 20°31' W 086°57'0 0.0
2017-Nov-30 17:30N 20°31' W 086°57'0 0.0
2017-Nov-30 17:00N 20°31' W 086°57'0 0.0
2017-Nov-30 16:30N 20°31' W 086°57'0 0.0
2017-Nov-30 16:00N 20°31' W 086°57'0 0.0
2017-Nov-30 15:30N 20°31' W 086°57'0 0.0
2017-Nov-30 15:00N 20°31' W 086°57'0 0.0
2017-Nov-30 14:30N 20°31' W 086°57'0 0.8
2017-Nov-30 14:00N 20°30' W 086°58'3 5.9
2017-Nov-30 13:30N 20°33' W 086°57'815.2
2017-Nov-30 13:00N 20°40' W 086°53'  

Dump ship's entire track history